Dunbridge, Ohio
Current Conditions -  °F | °C
As of 6:53 PM on Sunday 21 Dec 2014 (Local Time) from KTDZ Reporting Station
Clear Clear  
Wind Chill: 30°   Ceiling: Unl
Heat Index: 30°   Visibility: 8mi
Dew Point: 22°   Wind: 3mph
Humidity: 72%   Direction: 90°E
Pressure: 30.23"   Gusts: NA
Location:  41.46°N, 83.61°W
Report Text: KTDZ 212353Z AUTO 09003KT 8SM CLR M01/M06 A3023 RMK AO2 SLP245 T10111056 10022 21017 57001 TSNO
Loading
Personal Weather Stations






























Interactive Weather Map New forecast layout! Learn more

10-Day Weather Forecast

Advertisements
Track Severe Weather on mobile